Time;durP1;ratioP1;P1;durP2;ratioP2;P2;SDS_P1;SDS_P2;PMS_P1;PMS_P2;Temp;Humidity;BMP_temperature;BMP_pressure;BME280_temperature;BME280_humidity;BME280_pressure;Samples;Min_cycle;Max_cycle;Signal;HPM_P1;HPM_P2
2023/11/22 00:00:43;;;;;;;12.70;8.82;;;12.20;99.90;;;;;;4266174;27;20400;-56
2023/11/22 00:02:47;;;;;;;9.93;8.18;;;12.20;99.90;;;;;;4265918;27;20411;-58
2023/11/22 00:04:49;;;;;;;14.00;8.75;;;12.20;99.90;;;;;;4265553;27;20066;-56
2023/11/22 00:06:51;;;;;;;12.13;9.60;;;12.30;99.90;;;;;;4247213;27;20096;-57
2023/11/22 00:08:53;;;;;;;15.25;9.93;;;12.20;99.90;;;;;;4246372;27;20073;-55
2023/11/22 00:10:55;;;;;;;13.30;9.80;;;12.10;99.90;;;;;;4265334;27;20048;-55
2023/11/22 00:12:58;;;;;;;13.27;9.93;;;12.10;99.90;;;;;;4265258;27;20117;-55
2023/11/22 00:15:03;;;;;;;17.63;10.27;;;12.10;99.90;;;;;;4265478;27;20051;-55
2023/11/22 00:17:05;;;;;;;14.02;11.43;;;12.00;99.90;;;;;;4265184;27;20081;-55
2023/11/22 00:19:07;;;;;;;12.00;9.40;;;12.00;99.90;;;;;;4265321;27;20456;-60
2023/11/22 00:21:09;;;;;;;13.80;11.38;;;12.00;99.90;;;;;;4265225;27;20077;-56
2023/11/22 00:23:13;;;;;;;14.23;10.35;;;12.00;99.90;;;;;;4265363;27;20047;-55
2023/11/22 00:25:15;;;;;;;15.38;11.95;;;11.90;99.90;;;;;;4264997;27;20046;-55
2023/11/22 00:27:17;;;;;;;19.50;12.48;;;11.90;99.90;;;;;;4265172;27;20047;-58
2023/11/22 00:29:19;;;;;;;14.88;11.15;;;11.90;99.90;;;;;;4246702;27;20051;-54
2023/11/22 00:31:23;;;;;;;12.18;9.02;;;11.90;99.90;;;;;;4265014;27;20043;-55
2023/11/22 00:33:25;;;;;;;15.85;10.50;;;12.00;99.90;;;;;;4265034;27;20065;-56
2023/11/22 00:35:27;;;;;;;14.88;10.60;;;12.00;99.90;;;;;;4264829;27;20038;-55
2023/11/22 00:37:29;;;;;;;18.85;12.02;;;12.00;99.90;;;;;;4264899;27;20138;-56
2023/11/22 00:39:31;;;;;;;17.00;12.13;;;12.00;99.90;;;;;;4264341;27;20095;-54
2023/11/22 00:41:35;;;;;;;13.90;11.57;;;12.00;99.90;;;;;;4264757;27;20070;-55
2023/11/22 00:43:37;;;;;;;22.20;11.30;;;12.10;99.90;;;;;;4264854;27;20069;-53
2023/11/22 00:45:40;;;;;;;12.10;9.57;;;12.10;99.90;;;;;;4265070;27;20046;-55
2023/11/22 00:47:43;;;;;;;13.98;11.07;;;12.10;99.90;;;;;;4247669;27;20041;-54
2023/11/22 00:49:46;;;;;;;14.00;9.73;;;12.10;99.90;;;;;;4247735;27;20126;-56
2023/11/22 00:51:48;;;;;;;19.42;12.45;;;12.10;99.90;;;;;;4248046;27;20127;-58
2023/11/22 00:53:50;;;;;;;13.95;9.88;;;12.10;99.90;;;;;;4247563;27;20122;-56
2023/11/22 00:55:52;;;;;;;18.33;10.23;;;12.10;99.90;;;;;;4247947;27;20555;-55
2023/11/22 00:57:56;;;;;;;13.85;10.30;;;12.10;99.90;;;;;;4247922;27;20051;-55
2023/11/22 00:59:58;;;;;;;14.38;10.13;;;12.10;99.90;;;;;;4249591;27;20058;-56
2023/11/22 01:02:02;;;;;;;17.27;10.10;;;12.10;99.90;;;;;;4249365;27;20467;-64
2023/11/22 01:04:07;;;;;;;16.05;11.07;;;12.10;99.90;;;;;;4248661;27;20047;-62
2023/11/22 01:06:09;;;;;;;;;;;12.10;99.90;;;;;;4249723;27;20116;-58
2023/11/22 01:08:11;;;;;;;17.83;10.30;;;12.10;99.90;;;;;;4248689;27;19950;-54
2023/11/22 01:10:15;;;;;;;14.98;10.55;;;12.00;99.90;;;;;;4249876;27;20047;-56
2023/11/22 01:12:17;;;;;;;13.70;10.95;;;12.00;99.90;;;;;;4249388;27;20437;-55
2023/11/22 01:14:19;;;;;;;13.50;10.05;;;12.00;99.90;;;;;;4249300;28;20047;-56
2023/11/22 01:16:21;;;;;;;10.70;8.90;;;12.10;99.90;;;;;;4249182;28;20047;-65
2023/11/22 01:18:24;;;;;;;14.93;10.85;;;12.10;99.90;;;;;;4249681;28;20046;-57
2023/11/22 01:20:28;;;;;;;14.38;10.43;;;12.20;99.90;;;;;;4249440;27;20104;-63
2023/11/22 01:22:31;;;;;;;14.07;10.77;;;12.20;99.90;;;;;;4251850;27;20050;-58
2023/11/22 01:24:33;;;;;;;11.73;8.63;;;12.20;99.90;;;;;;4252280;27;20057;-59
2023/11/22 01:26:35;;;;;;;11.10;8.75;;;12.20;99.90;;;;;;4252751;27;20489;-55
2023/11/22 01:28:44;;;;;;;15.18;10.70;;;12.20;99.90;;;;;;4250993;27;20047;-57
2023/11/22 01:30:46;;;;;;;15.23;11.25;;;12.10;99.90;;;;;;4252471;27;20137;-55
2023/11/22 01:32:49;;;;;;;10.98;8.38;;;12.00;99.90;;;;;;4252327;27;20050;-57
2023/11/22 01:34:51;;;;;;;16.48;12.52;;;12.10;99.90;;;;;;4252458;27;20067;-60
2023/11/22 01:36:54;;;;;;;14.13;11.48;;;12.10;99.90;;;;;;4251336;27;20047;-55
2023/11/22 01:38:57;;;;;;;15.90;10.88;;;12.10;99.90;;;;;;4251194;27;20461;-55
2023/11/22 01:41:00;;;;;;;12.02;10.15;;;12.10;99.90;;;;;;4251199;27;20039;-56
2023/11/22 01:43:02;;;;;;;15.68;11.40;;;12.00;99.90;;;;;;4251145;27;20485;-60
2023/11/22 01:45:05;;;;;;;14.45;10.57;;;12.00;99.90;;;;;;4251089;27;20047;-57
2023/11/22 01:47:08;;;;;;;13.57;11.13;;;12.00;99.90;;;;;;4263396;27;20043;-56
2023/11/22 01:49:11;;;;;;;13.32;11.10;;;12.00;99.90;;;;;;4267701;27;20480;-56
2023/11/22 01:51:13;;;;;;;15.13;12.20;;;12.10;99.90;;;;;;4267392;27;20122;-56
2023/11/22 01:53:17;;;;;;;14.98;11.15;;;12.10;99.90;;;;;;4267991;27;20084;-55
2023/11/22 01:55:19;;;;;;;14.80;11.50;;;12.00;99.90;;;;;;4268018;27;20074;-55
2023/11/22 01:57:21;;;;;;;13.80;11.30;;;12.00;99.90;;;;;;4268187;27;20054;-56
2023/11/22 01:59:26;;;;;;;14.35;10.88;;;12.00;99.90;;;;;;4268040;27;20054;-56
2023/11/22 02:01:28;;;;;;;15.35;11.75;;;12.00;99.90;;;;;;4267823;27;20046;-55
2023/11/22 02:03:30;;;;;;;17.65;12.88;;;12.00;99.90;;;;;;4267981;27;20471;-55
2023/11/22 02:05:33;;;;;;;16.17;13.05;;;11.90;99.90;;;;;;4267973;27;20050;-60
2023/11/22 02:07:35;;;;;;;16.88;12.70;;;12.00;99.90;;;;;;4268481;27;20126;-59
2023/11/22 02:09:38;;;;;;;17.67;12.15;;;12.00;99.90;;;;;;4268070;27;20057;-55
2023/11/22 02:11:42;;;;;;;17.25;12.95;;;12.00;99.90;;;;;;4267361;27;20042;-56
2023/11/22 02:13:44;;;;;;;12.80;11.30;;;11.90;99.90;;;;;;4267715;27;20062;-57
2023/11/22 02:15:46;;;;;;;16.35;13.10;;;12.00;99.90;;;;;;4268102;27;20069;-57
2023/11/22 02:17:48;;;;;;;18.00;14.10;;;12.00;99.90;;;;;;4267529;27;20544;-55
2023/11/22 02:19:51;;;;;;;19.98;14.57;;;11.90;99.90;;;;;;4267149;27;20043;-54
2023/11/22 02:21:53;;;;;;;20.70;13.80;;;11.90;99.90;;;;;;4267187;27;20408;-54
2023/11/22 02:23:57;;;;;;;22.63;15.88;;;11.90;99.90;;;;;;4267448;27;20046;-55
2023/11/22 02:25:59;;;;;;;18.42;14.70;;;11.80;99.90;;;;;;4267387;27;20092;-53
2023/11/22 02:28:02;;;;;;;19.58;14.80;;;11.70;99.90;;;;;;4266969;27;20043;-57
2023/11/22 02:30:05;;;;;;;17.77;15.43;;;11.70;99.90;;;;;;4267334;27;20078;-59
2023/11/22 02:32:08;;;;;;;16.23;14.52;;;11.80;99.90;;;;;;4267908;27;20375;-53
2023/11/22 02:34:10;;;;;;;16.55;14.57;;;11.70;99.90;;;;;;4266647;27;20047;-54
2023/11/22 02:36:12;;;;;;;20.25;16.33;;;11.70;99.90;;;;;;4266838;27;20066;-54
2023/11/22 02:38:14;;;;;;;19.77;14.35;;;11.70;99.90;;;;;;4266870;27;20043;-56
2023/11/22 02:40:20;;;;;;;19.30;15.95;;;11.60;99.90;;;;;;4267204;27;20080;-53
2023/11/22 02:42:22;;;;;;;16.50;14.00;;;11.60;99.90;;;;;;4266962;27;20058;-54
2023/11/22 02:44:26;;;;;;;18.20;15.43;;;11.60;99.90;;;;;;4266890;27;20095;-53
2023/11/22 02:46:30;;;;;;;16.33;14.35;;;11.60;99.90;;;;;;4266810;27;20403;-53
2023/11/22 02:48:33;;;;;;;18.48;14.27;;;11.60;99.90;;;;;;4266378;27;20047;-61
2023/11/22 02:50:37;;;;;;;18.63;15.00;;;11.50;99.90;;;;;;4266558;27;20042;-53
2023/11/22 02:52:39;;;;;;;17.75;14.07;;;11.50;99.90;;;;;;4266860;27;20051;-53
2023/11/22 02:54:43;;;;;;;19.83;14.23;;;11.50;99.90;;;;;;4248401;27;20129;-54
2023/11/22 02:56:47;;;;;;;14.88;13.27;;;11.40;99.90;;;;;;4266475;27;20047;-53
2023/11/22 02:58:49;;;;;;;19.83;14.90;;;11.40;99.90;;;;;;4266590;27;20503;-56
2023/11/22 03:00:54;;;;;;;17.40;13.18;;;11.30;99.90;;;;;;4266628;27;20062;-56
2023/11/22 03:02:56;;;;;;;15.80;13.13;;;11.20;99.90;;;;;;4266168;27;20074;-53
2023/11/22 03:04:59;;;;;;;13.82;12.10;;;11.10;99.90;;;;;;4266444;27;20043;-55
2023/11/22 03:07:01;;;;;;;17.20;13.15;;;11.20;99.90;;;;;;4266427;27;20043;-53
2023/11/22 03:09:04;;;;;;;14.73;12.57;;;11.10;99.90;;;;;;4266531;27;20053;-54
2023/11/22 03:11:06;;;;;;;15.18;12.43;;;11.10;99.90;;;;;;4266332;27;20406;-57
2023/11/22 03:13:10;;;;;;;14.75;12.98;;;11.10;99.90;;;;;;4266470;27;20417;-56
2023/11/22 03:15:12;;;;;;;18.80;14.32;;;11.10;99.90;;;;;;4266660;27;20400;-58
2023/11/22 03:17:15;;;;;;;15.50;12.52;;;11.00;99.90;;;;;;4266708;27;20062;-53
2023/11/22 03:19:19;;;;;;;17.83;14.35;;;11.10;99.90;;;;;;4266271;27;20054;-57
2023/11/22 03:21:21;;;;;;;15.05;12.93;;;11.10;99.90;;;;;;4266051;27;20046;-54
2023/11/22 03:23:23;;;;;;;15.15;12.88;;;11.00;99.90;;;;;;4266287;27;20099;-56
2023/11/22 03:25:25;;;;;;;19.60;13.10;;;10.90;99.90;;;;;;4266314;27;20093;-56
2023/11/22 03:27:27;;;;;;;12.38;10.57;;;10.90;99.90;;;;;;4266435;27;20134;-56
2023/11/22 03:29:30;;;;;;;16.35;13.18;;;10.90;99.90;;;;;;4265988;27;20038;-56
2023/11/22 03:31:33;;;;;;;21.00;13.27;;;10.80;99.90;;;;;;4266307;27;20070;-56
2023/11/22 03:33:35;;;;;;;17.13;13.35;;;10.70;99.90;;;;;;4265863;27;20418;-57
2023/11/22 03:35:37;;;;;;;16.13;12.50;;;10.70;99.90;;;;;;4266044;27;20050;-57
2023/11/22 03:37:44;;;;;;;15.77;11.25;;;10.70;99.90;;;;;;4266100;27;20074;-56
2023/11/22 03:39:51;;;;;;;13.48;11.70;;;10.70;99.90;;;;;;4266130;27;20051;-60
2023/11/22 03:41:53;;;;;;;13.45;12.00;;;10.60;99.90;;;;;;4266197;27;20117;-56
2023/11/22 03:43:55;;;;;;;15.63;12.30;;;10.50;99.90;;;;;;4265407;27;20057;-56
2023/11/22 03:45:59;;;;;;;13.93;11.75;;;10.40;99.90;;;;;;4265948;27;20046;-57
2023/11/22 03:48:01;;;;;;;14.55;12.32;;;10.30;99.90;;;;;;4265490;27;20076;-57
2023/11/22 03:50:05;;;;;;;14.77;10.30;;;10.30;99.90;;;;;;4265830;27;20054;-56
2023/11/22 03:52:08;;;;;;;12.05;10.38;;;10.30;99.90;;;;;;4265761;27;20054;-56
2023/11/22 03:54:12;;;;;;;14.77;11.13;;;10.10;99.90;;;;;;4265539;27;20076;-57
2023/11/22 03:56:14;;;;;;;14.13;12.27;;;10.10;99.90;;;;;;4265763;27;20407;-57
2023/11/22 03:58:18;;;;;;;12.57;10.85;;;10.00;99.90;;;;;;4265556;27;20384;-56
2023/11/22 04:00:20;;;;;;;13.93;11.20;;;10.00;99.90;;;;;;4265728;27;20053;-56
2023/11/22 04:02:23;;;;;;;11.60;10.05;;;10.10;99.90;;;;;;4265071;27;20046;-57
2023/11/22 04:04:25;;;;;;;15.35;10.75;;;10.10;99.90;;;;;;4265658;27;20047;-57
2023/11/22 04:06:27;;;;;;;12.07;9.85;;;10.10;99.90;;;;;;4265592;27;20053;-56
2023/11/22 04:08:30;;;;;;;12.73;10.27;;;10.20;99.90;;;;;;4265407;27;20042;-56
2023/11/22 04:10:32;;;;;;;12.77;10.93;;;10.10;99.90;;;;;;4265525;27;20045;-56
2023/11/22 04:12:34;;;;;;;13.68;10.05;;;10.10;99.90;;;;;;4265628;27;20125;-56
2023/11/22 04:14:38;;;;;;;11.95;9.75;;;10.20;99.90;;;;;;4265472;27;20074;-57
2023/11/22 04:16:40;;;;;;;15.68;11.40;;;10.20;99.90;;;;;;4264833;27;20540;-56
2023/11/22 04:18:44;;;;;;;12.05;10.65;;;10.10;99.90;;;;;;4265287;27;20042;-58
2023/11/22 04:20:47;;;;;;;15.87;12.37;;;10.10;99.90;;;;;;4265293;27;20103;-57
2023/11/22 04:22:50;;;;;;;12.13;10.32;;;10.10;99.90;;;;;;4265566;27;20112;-56
2023/11/22 04:24:52;;;;;;;15.90;11.38;;;10.00;99.90;;;;;;4265454;27;20066;-55
2023/11/22 04:26:54;;;;;;;15.70;11.07;;;9.90;99.90;;;;;;4265077;27;20046;-53
2023/11/22 04:28:58;;;;;;;16.08;12.02;;;9.80;99.90;;;;;;4265148;27;20491;-56
2023/11/22 04:31:00;;;;;;;12.65;11.10;;;9.80;99.90;;;;;;4265147;27;20337;-55
2023/11/22 04:33:02;;;;;;;15.55;11.48;;;9.80;99.90;;;;;;4264842;27;20112;-54
2023/11/22 04:35:07;;;;;;;15.45;11.65;;;9.70;99.90;;;;;;4246504;27;20092;-53
2023/11/22 04:37:09;;;;;;;;;;;9.80;99.90;;;;;;4265503;27;20046;-54
2023/11/22 04:39:12;;;;;;;18.52;12.30;;;9.70;99.90;;;;;;4264770;27;20032;-54
2023/11/22 04:41:15;;;;;;;15.00;12.80;;;9.60;99.90;;;;;;4264377;27;20408;-54
2023/11/22 04:43:17;;;;;;;12.55;10.32;;;9.50;99.90;;;;;;4265272;27;20047;-54
2023/11/22 04:45:19;;;;;;;19.50;12.48;;;9.60;99.90;;;;;;4264523;27;20057;-54
2023/11/22 04:47:22;;;;;;;19.95;11.60;;;9.60;99.90;;;;;;4264857;27;20053;-56
2023/11/22 04:49:24;;;;;;;22.35;13.07;;;9.60;99.90;;;;;;4264911;27;20046;-55
2023/11/22 04:51:29;;;;;;;16.50;11.65;;;9.50;99.90;;;;;;4264662;27;20507;-57
2023/11/22 04:53:32;;;;;;;17.73;13.30;;;9.50;99.90;;;;;;4265163;27;20149;-57
2023/11/22 04:55:34;;;;;;;17.13;12.93;;;9.50;99.90;;;;;;4264212;27;20494;-55
2023/11/22 04:57:36;;;;;;;23.85;13.43;;;9.50;99.90;;;;;;4264939;27;20038;-56
2023/11/22 04:59:38;;;;;;;23.25;12.27;;;9.40;99.90;;;;;;4264850;27;20196;-56
2023/11/22 05:01:40;;;;;;;19.75;12.52;;;9.30;99.90;;;;;;4265612;27;20042;-57
2023/11/22 05:03:42;;;;;;;16.98;13.68;;;9.30;99.90;;;;;;4266323;27;20039;-57
2023/11/22 05:05:45;;;;;;;18.02;13.27;;;9.20;99.90;;;;;;4265096;27;20070;-57
2023/11/22 05:07:49;;;;;;;14.10;11.75;;;9.20;99.90;;;;;;4266147;27;20046;-58
2023/11/22 05:09:51;;;;;;;17.30;12.23;;;9.30;99.90;;;;;;4265179;27;20122;-57
2023/11/22 05:11:53;;;;;;;17.42;11.13;;;9.40;99.90;;;;;;4264817;27;20043;-57
2023/11/22 05:13:55;;;;;;;22.05;12.40;;;9.50;99.90;;;;;;4264324;27;20449;-56
2023/11/22 05:15:57;;;;;;;19.98;11.77;;;9.50;99.90;;;;;;4264737;27;20187;-55
2023/11/22 05:17:59;;;;;;;19.20;12.02;;;9.40;99.90;;;;;;4264340;27;20090;-61
2023/11/22 05:20:02;;;;;;;21.90;12.40;;;9.40;99.90;;;;;;4264650;27;20053;-57
2023/11/22 05:22:05;;;;;;;14.43;11.15;;;9.30;99.90;;;;;;4264391;27;20043;-57
2023/11/22 05:24:08;;;;;;;15.88;11.90;;;9.30;99.90;;;;;;4246433;28;20122;-58
2023/11/22 05:26:11;;;;;;;14.02;11.10;;;9.30;99.90;;;;;;4264641;27;20039;-57
2023/11/22 05:28:13;;;;;;;17.48;12.88;;;9.30;99.90;;;;;;4264329;27;20135;-59
2023/11/22 05:30:16;;;;;;;17.33;12.10;;;9.20;99.90;;;;;;4264648;27;20053;-56
2023/11/22 05:32:18;;;;;;;16.13;12.52;;;9.00;99.90;;;;;;4264869;27;20079;-56
2023/11/22 05:34:21;;;;;;;14.75;10.80;;;9.00;99.90;;;;;;4264322;27;20125;-58
2023/11/22 05:36:23;;;;;;;19.17;11.95;;;9.10;99.90;;;;;;4264698;27;20071;-57
2023/11/22 05:38:26;;;;;;;18.77;11.95;;;9.20;99.90;;;;;;4264294;27;20053;-57
2023/11/22 05:40:30;;;;;;;17.52;10.10;;;9.20;99.90;;;;;;4264753;27;20053;-57
2023/11/22 05:42:35;;;;;;;17.00;11.18;;;9.20;99.70;;;;;;4264265;27;20118;-56
2023/11/22 05:44:37;;;;;;;12.18;10.82;;;9.20;99.50;;;;;;4264642;27;20043;-56
2023/11/22 05:46:40;;;;;;;14.30;11.70;;;9.20;99.80;;;;;;4264233;27;20126;-56
2023/11/22 05:48:42;;;;;;;13.48;10.98;;;9.20;99.80;;;;;;4264334;27;20551;-56
2023/11/22 05:50:45;;;;;;;13.82;10.95;;;9.20;99.70;;;;;;4264284;27;20050;-56
2023/11/22 05:52:47;;;;;;;21.63;11.50;;;9.10;99.80;;;;;;4264508;27;20050;-57
2023/11/22 05:54:50;;;;;;;16.27;11.07;;;9.20;99.90;;;;;;4264210;27;20416;-56
2023/11/22 05:56:54;;;;;;;15.07;11.27;;;9.20;99.90;;;;;;4263838;27;20043;-57
2023/11/22 05:58:59;;;;;;;14.65;11.50;;;9.40;99.90;;;;;;4264352;27;20492;-58
2023/11/22 06:01:01;;;;;;;13.10;10.18;;;9.30;99.90;;;;;;4264496;27;20054;-57
2023/11/22 06:03:03;;;;;;;17.38;12.02;;;9.30;99.90;;;;;;4264809;27;20046;-56
2023/11/22 06:05:06;;;;;;;15.02;11.93;;;9.30;99.70;;;;;;4264396;27;20077;-57
2023/11/22 06:07:09;;;;;;;12.57;11.27;;;9.30;99.70;;;;;;4265150;27;20070;-57
2023/11/22 06:09:14;;;;;;;14.25;11.40;;;9.20;99.30;;;;;;4267604;27;20472;-57
2023/11/22 06:11:16;;;;;;;18.65;11.95;;;9.10;99.40;;;;;;4267448;27;20411;-57
2023/11/22 06:13:19;;;;;;;20.17;12.90;;;9.00;99.10;;;;;;4266448;27;20126;-58
2023/11/22 06:15:22;;;;;;;15.25;11.02;;;8.90;99.20;;;;;;4267328;27;20510;-57
2023/11/22 06:17:24;;;;;;;13.75;12.25;;;8.90;99.70;;;;;;4267546;27;20042;-58
2023/11/22 06:19:26;;;;;;;15.60;11.88;;;9.00;99.50;;;;;;4248951;27;20076;-56
2023/11/22 06:21:28;;;;;;;15.25;12.48;;;9.00;99.70;;;;;;4267250;27;20087;-56
2023/11/22 06:23:31;;;;;;;15.98;12.80;;;9.00;99.90;;;;;;4267376;27;20054;-56
2023/11/22 06:25:33;;;;;;;17.10;12.65;;;9.00;99.90;;;;;;4267136;27;20049;-57
2023/11/22 06:27:35;;;;;;;19.00;12.82;;;9.00;99.90;;;;;;4266746;27;20071;-58
2023/11/22 06:29:38;;;;;;;19.60;12.75;;;9.00;99.90;;;;;;4267002;27;20047;-57
2023/11/22 06:31:40;;;;;;;17.40;10.98;;;9.10;99.90;;;;;;4267332;27;20083;-56
2023/11/22 06:33:42;;;;;;;23.77;13.10;;;9.10;99.90;;;;;;4267088;27;20065;-56
2023/11/22 06:35:45;;;;;;;19.13;12.77;;;9.10;99.90;;;;;;4267136;27;20112;-57
2023/11/22 06:37:47;;;;;;;22.00;14.73;;;9.10;99.90;;;;;;4266865;27;20142;-56
2023/11/22 06:39:50;;;;;;;19.45;14.38;;;9.10;99.90;;;;;;4266818;27;20046;-57
2023/11/22 06:41:52;;;;;;;20.67;13.82;;;9.00;99.90;;;;;;4266694;27;20118;-57
2023/11/22 06:43:54;;;;;;;19.15;12.75;;;9.00;99.90;;;;;;4267113;27;20046;-56
2023/11/22 06:45:58;;;;;;;23.35;14.10;;;9.00;99.90;;;;;;4266964;27;20455;-58
2023/11/22 06:48:00;;;;;;;20.55;15.27;;;9.00;99.90;;;;;;4266741;27;20038;-56
2023/11/22 06:50:08;;;;;;;20.95;13.43;;;8.90;99.90;;;;;;4248589;27;20046;-56
2023/11/22 06:52:11;;;;;;;18.90;13.02;;;8.90;99.90;;;;;;4267310;27;20078;-56
2023/11/22 06:54:13;;;;;;;17.08;14.55;;;8.90;99.90;;;;;;4266818;27;20073;-57
2023/11/22 06:56:15;;;;;;;21.75;15.57;;;8.80;99.90;;;;;;4268029;27;20042;-56
2023/11/22 06:58:17;;;;;;;17.27;14.50;;;8.80;99.90;;;;;;4267698;27;20050;-57
2023/11/22 07:00:20;;;;;;;24.00;17.40;;;8.80;99.90;;;;;;4267372;27;20125;-58
2023/11/22 07:02:24;;;;;;;26.77;16.00;;;8.70;99.90;;;;;;4266785;27;20524;-58
2023/11/22 07:04:27;;;;;;;18.50;15.63;;;8.70;99.90;;;;;;4266874;27;20099;-56
2023/11/22 07:06:29;;;;;;;25.05;16.45;;;8.70;99.90;;;;;;4266397;27;20047;-61
2023/11/22 07:08:31;;;;;;;21.38;17.23;;;8.70;99.90;;;;;;4266784;27;20043;-56
2023/11/22 07:10:33;;;;;;;23.10;17.73;;;8.60;99.90;;;;;;4266126;27;20042;-57
2023/11/22 07:12:36;;;;;;;27.70;16.38;;;8.60;99.90;;;;;;4266798;27;20455;-57
2023/11/22 07:14:38;;;;;;;20.33;15.43;;;8.60;99.90;;;;;;4266613;27;20050;-57
2023/11/22 07:16:41;;;;;;;29.30;17.85;;;8.70;99.90;;;;;;4266724;27;20051;-56
2023/11/22 07:18:45;;;;;;;27.25;18.25;;;8.70;99.90;;;;;;4265615;27;20042;-56
2023/11/22 07:20:48;;;;;;;20.13;15.25;;;8.80;99.90;;;;;;4247806;27;20492;-56
2023/11/22 07:22:55;;;;;;;25.95;18.10;;;8.70;99.90;;;;;;4266176;27;20058;-58
2023/11/22 07:25:01;;;;;;;21.17;16.55;;;8.70;99.90;;;;;;4265859;27;20408;-56
2023/11/22 07:27:03;;;;;;;21.50;14.95;;;8.70;99.90;;;;;;4266424;27;20527;-56
2023/11/22 07:29:06;;;;;;;25.13;17.27;;;8.60;99.90;;;;;;4266743;27;20461;-57
2023/11/22 07:31:09;;;;;;;26.70;17.88;;;8.60;99.90;;;;;;4266257;27;20043;-55
2023/11/22 07:33:11;;;;;;;23.38;17.05;;;8.60;99.90;;;;;;4266623;27;20057;-56
2023/11/22 07:35:15;;;;;;;24.25;19.45;;;8.60;99.90;;;;;;4248649;27;20134;-57
2023/11/22 07:37:18;;;;;;;29.90;21.08;;;8.50;99.90;;;;;;4266073;27;20066;-54
2023/11/22 07:39:27;;;;;;;24.45;18.67;;;8.50;99.90;;;;;;4265910;27;20058;-56
2023/11/22 07:41:31;;;;;;;23.70;20.73;;;8.40;99.90;;;;;;4266057;27;20077;-55
2023/11/22 07:43:33;;;;;;;19.08;15.15;;;8.50;99.90;;;;;;4266388;27;20536;-57
2023/11/22 07:45:37;;;;;;;27.17;18.83;;;8.60;99.90;;;;;;4267645;27;20046;-57
2023/11/22 07:47:40;;;;;;;24.37;19.77;;;8.50;99.90;;;;;;4283670;27;20050;-56
2023/11/22 07:49:42;;;;;;;29.15;21.95;;;8.50;99.90;;;;;;4283389;27;20053;-57
2023/11/22 07:51:46;;;;;;;26.33;19.05;;;8.50;99.90;;;;;;4283027;27;20053;-56
2023/11/22 07:53:48;;;;;;;33.15;21.38;;;8.50;99.90;;;;;;4282835;27;20046;-57
2023/11/22 07:55:51;;;;;;;31.45;21.23;;;8.60;99.90;;;;;;4283253;27;20399;-57
2023/11/22 07:57:55;;;;;;;33.92;22.10;;;8.70;99.90;;;;;;4283245;27;20042;-55
2023/11/22 07:59:57;;;;;;;29.48;20.92;;;8.80;99.90;;;;;;4282832;27;20552;-56
2023/11/22 08:02:01;;;;;;;30.55;20.15;;;8.70;99.90;;;;;;4283084;27;20483;-56
2023/11/22 08:04:05;;;;;;;34.30;22.23;;;8.60;99.90;;;;;;4282778;27;20049;-56
2023/11/22 08:06:08;;;;;;;31.08;20.73;;;8.60;99.90;;;;;;4282876;27;20146;-56
2023/11/22 08:08:13;;;;;;;32.65;21.38;;;8.50;99.90;;;;;;4282416;27;20133;-55
2023/11/22 08:10:18;;;;;;;32.20;22.30;;;8.50;99.90;;;;;;4282961;27;20111;-56
2023/11/22 08:12:21;;;;;;;28.42;20.40;;;8.50;99.90;;;;;;4282579;27;20038;-56
2023/11/22 08:14:24;;;;;;;28.30;20.73;;;8.50;99.90;;;;;;4282843;27;20038;-56
2023/11/22 08:16:26;;;;;;;30.80;20.83;;;8.60;99.90;;;;;;4283008;27;20062;-58
2023/11/22 08:18:29;;;;;;;32.83;22.05;;;8.60;99.90;;;;;;4282801;27;20376;-55
2023/11/22 08:20:31;;;;;;;28.25;18.77;;;8.60;99.90;;;;;;4282640;27;20042;-56
2023/11/22 08:22:35;;;;;;;30.95;22.08;;;8.70;99.90;;;;;;4282357;27;20117;-56
2023/11/22 08:24:38;;;;;;;34.30;21.85;;;8.80;99.90;;;;;;4282567;27;20034;-57
2023/11/22 08:26:40;;;;;;;27.70;18.75;;;8.80;99.90;;;;;;4282410;27;20105;-57
2023/11/22 08:28:42;;;;;;;36.13;21.67;;;8.80;99.90;;;;;;4282332;27;20054;-55
2023/11/22 08:30:44;;;;;;;29.98;21.33;;;8.90;99.90;;;;;;4263936;27;20126;-56
2023/11/22 08:32:53;;;;;;;46.15;22.33;;;8.80;99.90;;;;;;4282302;27;20042;-57
2023/11/22 08:34:56;;;;;;;31.15;20.80;;;8.90;99.90;;;;;;4281779;27;20046;-57
2023/11/22 08:36:59;;;;;;;32.85;19.15;;;8.90;99.90;;;;;;4282106;27;20119;-56
2023/11/22 08:39:01;;;;;;;30.10;19.98;;;9.00;99.90;;;;;;4282108;27;20070;-57
2023/11/22 08:41:05;;;;;;;28.05;19.38;;;9.00;99.90;;;;;;4282364;27;20058;-57
2023/11/22 08:43:09;;;;;;;38.80;21.98;;;9.00;99.90;;;;;;4282057;27;20099;-57
2023/11/22 08:45:11;;;;;;;28.35;20.27;;;9.00;99.90;;;;;;4282191;27;20061;-57
2023/11/22 08:47:14;;;;;;;33.08;22.45;;;9.00;99.90;;;;;;4282224;27;20046;-57
2023/11/22 08:49:16;;;;;;;32.83;21.67;;;9.00;99.90;;;;;;4282939;27;20042;-56
2023/11/22 08:51:18;;;;;;;30.25;23.15;;;9.00;99.90;;;;;;4284218;27;20066;-57
2023/11/22 08:53:20;;;;;;;27.05;19.35;;;9.00;99.90;;;;;;4264119;27;20048;-56
2023/11/22 08:55:22;;;;;;;28.33;17.73;;;9.00;99.90;;;;;;4259562;27;20043;-56
2023/11/22 08:57:25;;;;;;;24.55;16.02;;;9.20;99.90;;;;;;4247837;27;20047;-57
2023/11/22 08:59:28;;;;;;;29.90;20.33;;;9.50;99.90;;;;;;4247641;27;20099;-58
2023/11/22 09:01:30;;;;;;;33.47;17.55;;;9.50;99.90;;;;;;4253819;27;20073;-57
2023/11/22 09:03:32;;;;;;;27.95;15.98;;;9.70;99.90;;;;;;4252025;27;20047;-55
2023/11/22 09:05:36;;;;;;;27.13;18.00;;;10.00;99.90;;;;;;4247857;27;20147;-57
2023/11/22 09:07:39;;;;;;;21.80;14.77;;;10.00;99.90;;;;;;4263673;27;20054;-58
2023/11/22 09:09:43;;;;;;;34.28;19.55;;;10.10;99.90;;;;;;4265093;27;20046;-57
2023/11/22 09:11:45;;;;;;;22.80;14.97;;;9.90;99.20;;;;;;4255422;27;20042;-58
2023/11/22 09:13:50;;;;;;;25.45;19.08;;;10.00;99.90;;;;;;4257630;27;20034;-57
2023/11/22 09:15:52;;;;;;;27.58;18.90;;;9.90;98.80;;;;;;4260995;27;20395;-58
2023/11/22 09:17:55;;;;;;;22.75;14.85;;;9.90;99.30;;;;;;4258611;27;20049;-56
2023/11/22 09:19:58;;;;;;;29.38;18.75;;;10.20;99.90;;;;;;4237102;28;20047;-56
2023/11/22 09:22:00;;;;;;;28.35;18.90;;;10.20;98.80;;;;;;4261322;27;20068;-57
2023/11/22 09:24:05;;;;;;;27.88;19.27;;;10.00;98.60;;;;;;4257386;27;20057;-58
2023/11/22 09:26:08;;;;;;;27.90;19.15;;;10.00;99.00;;;;;;4264279;27;20043;-55
2023/11/22 09:28:11;;;;;;;28.50;19.23;;;9.80;98.70;;;;;;4261886;27;20047;-56
2023/11/22 09:30:19;;;;;;;27.95;19.27;;;9.80;99.10;;;;;;4257442;27;20125;-58
2023/11/22 09:32:23;;;;;;;29.55;17.35;;;9.80;98.60;;;;;;4255386;27;20085;-58
2023/11/22 09:34:26;;;;;;;33.63;18.65;;;9.70;99.50;;;;;;4248387;27;20043;-58
2023/11/22 09:36:29;;;;;;;24.65;16.90;;;9.70;99.10;;;;;;4246243;28;20122;-57
2023/11/22 09:38:31;;;;;;;20.73;14.80;;;10.10;99.90;;;;;;4246153;28;20161;-57
2023/11/22 09:40:34;;;;;;;29.17;17.35;;;10.10;99.20;;;;;;4259580;27;20043;-56
2023/11/22 09:42:41;;;;;;;33.10;20.05;;;10.10;98.80;;;;;;4265600;27;20498;-57
2023/11/22 09:44:43;;;;;;;22.10;14.68;;;10.10;98.60;;;;;;4268092;27;20117;-58
2023/11/22 09:46:48;;;;;;;27.55;16.83;;;10.30;99.90;;;;;;4267662;27;20437;-57
2023/11/22 09:48:53;;;;;;;26.83;18.35;;;10.60;98.70;;;;;;4267645;27;20047;-58
2023/11/22 09:51:01;;;;;;;31.92;18.92;;;10.70;98.10;;;;;;4249362;27;20519;-58
2023/11/22 09:53:10;;;;;;;24.10;18.75;;;10.70;97.90;;;;;;4266873;27;20211;-57
2023/11/22 09:55:13;;;;;;;22.63;13.27;;;10.60;97.50;;;;;;4267981;27;20050;-56
2023/11/22 09:57:17;;;;;;;25.80;16.45;;;10.80;98.60;;;;;;4268351;27;20043;-57
2023/11/22 09:59:23;;;;;;;21.00;17.43;;;11.00;97.80;;;;;;4266366;27;20066;-57
2023/11/22 10:01:28;;;;;;;25.83;17.67;;;10.70;97.10;;;;;;4265417;27;20599;-59
2023/11/22 10:03:31;;;;;;;24.58;18.15;;;10.70;97.30;;;;;;4267379;27;20099;-54
2023/11/22 10:05:34;;;;;;;24.57;16.27;;;10.50;97.10;;;;;;4267451;27;20039;-57
2023/11/22 10:07:36;;;;;;;20.50;15.13;;;10.50;98.20;;;;;;4266951;27;20121;-56
2023/11/22 10:09:41;;;;;;;20.23;14.68;;;10.50;98.10;;;;;;4268452;27;20047;-57
2023/11/22 10:11:43;;;;;;;;;;;11.00;98.00;;;;;;4269236;27;20054;-54
2023/11/22 10:13:47;;;;;;;22.25;15.00;;;11.10;97.40;;;;;;4268719;27;20021;-56
2023/11/22 10:15:50;;;;;;;21.63;15.50;;;10.90;97.00;;;;;;4268595;27;20046;-55
2023/11/22 10:18:01;;;;;;;18.70;14.25;;;11.30;97.50;;;;;;4267731;27;20088;-55
2023/11/22 10:20:11;;;;;;;28.83;16.95;;;11.10;97.00;;;;;;4267521;27;20369;-58
2023/11/22 10:22:17;;;;;;;26.38;14.48;;;11.20;97.30;;;;;;4267308;27;20524;-57
2023/11/22 10:24:21;;;;;;;19.65;13.35;;;11.30;97.30;;;;;;4267361;27;20072;-57
2023/11/22 10:26:24;;;;;;;28.55;18.10;;;11.40;97.10;;;;;;4267681;27;20083;-56
2023/11/22 10:28:27;;;;;;;22.50;15.32;;;11.30;96.20;;;;;;4268363;27;20039;-58